Decker, Indiana
Current Conditions -  °F | °C
As of 9:15 PM on Friday 21 Nov 2014 (Local Time) from KAJG Reporting Station
Overcast Overcast  
Wind Chill: 36°   Ceiling: 2600
Heat Index: 41°   Visibility: 10mi
Dew Point: 19°   Wind: 8mph
Humidity: 42%   Direction: 130°SE
Pressure: 30.33"   Gusts: NA
Location:  38.52°N, 87.52°W
Report Text: KAJG 220315Z AUTO 13007KT 10SM BKN026 OVC033 05/M07 A3033 RMK AO2
Loading
Personal Weather Stations






























Interactive Weather Map New forecast layout! Learn more

10-Day Weather Forecast

Advertisements
Track Severe Weather on mobile